sensor_id;sensor_type;location;lat;lon;timestamp;P1;durP1;ratioP1;P2;durP2;ratioP2
3259;SDS011;22469;48.150;14.004;2023-03-23T00:01:56;11.50;;;10.40;;
3259;SDS011;22469;48.150;14.004;2023-03-23T00:04:22;12.70;;;11.40;;
3259;SDS011;22469;48.150;14.004;2023-03-23T00:06:50;10.70;;;9.60;;
3259;SDS011;22469;48.150;14.004;2023-03-23T00:09:17;11.73;;;10.57;;
3259;SDS011;22469;48.150;14.004;2023-03-23T00:11:48;14.07;;;10.33;;
3259;SDS011;22469;48.150;14.004;2023-03-23T00:14:16;10.47;;;9.63;;
3259;SDS011;22469;48.150;14.004;2023-03-23T00:16:48;11.03;;;9.80;;
3259;SDS011;22469;48.150;14.004;2023-03-23T00:19:16;12.17;;;10.80;;
3259;SDS011;22469;48.150;14.004;2023-03-23T00:21:44;14.10;;;11.20;;
3259;SDS011;22469;48.150;14.004;2023-03-23T00:26:41;11.67;;;10.47;;
3259;SDS011;22469;48.150;14.004;2023-03-23T00:31:47;11.43;;;10.07;;
3259;SDS011;22469;48.150;14.004;2023-03-23T00:34:15;11.70;;;9.57;;
3259;SDS011;22469;48.150;14.004;2023-03-23T00:36:48;11.63;;;10.30;;
3259;SDS011;22469;48.150;14.004;2023-03-23T00:39:22;10.30;;;9.33;;
3259;SDS011;22469;48.150;14.004;2023-03-23T00:41:50;10.47;;;9.43;;
3259;SDS011;22469;48.150;14.004;2023-03-23T00:44:16;10.97;;;9.97;;
3259;SDS011;22469;48.150;14.004;2023-03-23T00:46:47;12.93;;;10.27;;
3259;SDS011;22469;48.150;14.004;2023-03-23T00:49:15;11.03;;;10.00;;
3259;SDS011;22469;48.150;14.004;2023-03-23T00:51:45;9.20;;;8.40;;
3259;SDS011;22469;48.150;14.004;2023-03-23T00:54:11;10.80;;;8.83;;
3259;SDS011;22469;48.150;14.004;2023-03-23T00:56:37;10.97;;;9.97;;
3259;SDS011;22469;48.150;14.004;2023-03-23T00:59:06;10.73;;;9.70;;
3259;SDS011;22469;48.150;14.004;2023-03-23T01:01:33;10.47;;;9.40;;
3259;SDS011;22469;48.150;14.004;2023-03-23T01:04:00;11.43;;;10.33;;
3259;SDS011;22469;48.150;14.004;2023-03-23T01:06:30;10.77;;;9.67;;
3259;SDS011;22469;48.150;14.004;2023-03-23T01:09:00;10.23;;;9.23;;
3259;SDS011;22469;48.150;14.004;2023-03-23T01:11:28;10.43;;;9.53;;
3259;SDS011;22469;48.150;14.004;2023-03-23T01:13:55;11.30;;;10.10;;
3259;SDS011;22469;48.150;14.004;2023-03-23T01:16:21;10.83;;;9.50;;
3259;SDS011;22469;48.150;14.004;2023-03-23T01:18:47;11.30;;;10.30;;
3259;SDS011;22469;48.150;14.004;2023-03-23T01:21:15;10.60;;;8.33;;
3259;SDS011;22469;48.150;14.004;2023-03-23T01:23:44;11.80;;;9.77;;
3259;SDS011;22469;48.150;14.004;2023-03-23T01:26:11;10.83;;;9.70;;
3259;SDS011;22469;48.150;14.004;2023-03-23T01:28:41;10.50;;;9.50;;
3259;SDS011;22469;48.150;14.004;2023-03-23T01:31:09;10.67;;;9.57;;
3259;SDS011;22469;48.150;14.004;2023-03-23T01:33:40;12.27;;;9.70;;
3259;SDS011;22469;48.150;14.004;2023-03-23T01:36:10;10.00;;;9.00;;
3259;SDS011;22469;48.150;14.004;2023-03-23T01:38:41;12.00;;;9.43;;
3259;SDS011;22469;48.150;14.004;2023-03-23T01:41:12;10.47;;;9.37;;
3259;SDS011;22469;48.150;14.004;2023-03-23T01:46:30;11.83;;;8.63;;
3259;SDS011;22469;48.150;14.004;2023-03-23T01:49:01;21.50;;;9.97;;
3259;SDS011;22469;48.150;14.004;2023-03-23T01:51:34;9.57;;;8.63;;
3259;SDS011;22469;48.150;14.004;2023-03-23T01:54:07;10.40;;;9.20;;
3259;SDS011;22469;48.150;14.004;2023-03-23T01:56:45;11.63;;;8.47;;
3259;SDS011;22469;48.150;14.004;2023-03-23T01:59:42;8.63;;;7.83;;
3259;SDS011;22469;48.150;14.004;2023-03-23T02:02:12;16.47;;;9.03;;
3259;SDS011;22469;48.150;14.004;2023-03-23T02:04:38;8.50;;;7.60;;
3259;SDS011;22469;48.150;14.004;2023-03-23T02:07:07;10.27;;;8.53;;
3259;SDS011;22469;48.150;14.004;2023-03-23T02:09:34;11.57;;;8.70;;
3259;SDS011;22469;48.150;14.004;2023-03-23T02:12:01;10.40;;;9.30;;
3259;SDS011;22469;48.150;14.004;2023-03-23T02:14:27;11.10;;;8.53;;
3259;SDS011;22469;48.150;14.004;2023-03-23T02:33:50;8.27;;;7.50;;
3259;SDS011;22469;48.150;14.004;2023-03-23T02:39:19;8.53;;;7.63;;
3259;SDS011;22469;48.150;14.004;2023-03-23T02:42:06;14.13;;;9.57;;
3259;SDS011;22469;48.150;14.004;2023-03-23T02:44:39;8.33;;;7.60;;
3259;SDS011;22469;48.150;14.004;2023-03-23T02:47:11;9.67;;;8.50;;
3259;SDS011;22469;48.150;14.004;2023-03-23T02:49:44;9.30;;;8.40;;
3259;SDS011;22469;48.150;14.004;2023-03-23T02:52:16;13.10;;;7.77;;
3259;SDS011;22469;48.150;14.004;2023-03-23T02:54:48;13.13;;;8.93;;
3259;SDS011;22469;48.150;14.004;2023-03-23T02:57:16;8.60;;;7.70;;
3259;SDS011;22469;48.150;14.004;2023-03-23T02:59:43;13.00;;;8.43;;
3259;SDS011;22469;48.150;14.004;2023-03-23T03:02:10;8.20;;;7.40;;
3259;SDS011;22469;48.150;14.004;2023-03-23T03:04:47;10.67;;;8.87;;
3259;SDS011;22469;48.150;14.004;2023-03-23T03:12:58;10.43;;;7.70;;
3259;SDS011;22469;48.150;14.004;2023-03-23T03:15:45;9.23;;;7.57;;
3259;SDS011;22469;48.150;14.004;2023-03-23T03:18:32;8.17;;;7.37;;
3259;SDS011;22469;48.150;14.004;2023-03-23T03:21:04;9.80;;;7.80;;
3259;SDS011;22469;48.150;14.004;2023-03-23T03:23:36;11.40;;;8.03;;
3259;SDS011;22469;48.150;14.004;2023-03-23T03:26:06;8.27;;;7.57;;
3259;SDS011;22469;48.150;14.004;2023-03-23T03:28:36;9.33;;;8.43;;
3259;SDS011;22469;48.150;14.004;2023-03-23T03:31:02;8.57;;;7.80;;
3259;SDS011;22469;48.150;14.004;2023-03-23T03:33:31;9.57;;;7.13;;
3259;SDS011;22469;48.150;14.004;2023-03-23T03:35:59;8.10;;;7.47;;
3259;SDS011;22469;48.150;14.004;2023-03-23T03:38:29;9.10;;;8.20;;
3259;SDS011;22469;48.150;14.004;2023-03-23T03:40:55;9.53;;;8.67;;
3259;SDS011;22469;48.150;14.004;2023-03-23T03:43:22;9.97;;;8.07;;
3259;SDS011;22469;48.150;14.004;2023-03-23T03:45:48;8.57;;;7.73;;
3259;SDS011;22469;48.150;14.004;2023-03-23T03:48:13;7.57;;;6.70;;
3259;SDS011;22469;48.150;14.004;2023-03-23T03:50:39;10.00;;;9.10;;
3259;SDS011;22469;48.150;14.004;2023-03-23T03:53:06;9.80;;;8.40;;
3259;SDS011;22469;48.150;14.004;2023-03-23T03:55:32;8.53;;;7.63;;
3259;SDS011;22469;48.150;14.004;2023-03-23T03:58:03;8.00;;;6.87;;
3259;SDS011;22469;48.150;14.004;2023-03-23T04:00:30;8.83;;;8.10;;
3259;SDS011;22469;48.150;14.004;2023-03-23T04:02:56;8.40;;;7.70;;
3259;SDS011;22469;48.150;14.004;2023-03-23T04:05:25;8.33;;;7.63;;
3259;SDS011;22469;48.150;14.004;2023-03-23T04:07:54;7.60;;;6.90;;
3259;SDS011;22469;48.150;14.004;2023-03-23T04:10:26;9.07;;;7.53;;
3259;SDS011;22469;48.150;14.004;2023-03-23T04:12:54;14.03;;;8.23;;
3259;SDS011;22469;48.150;14.004;2023-03-23T04:15:20;9.67;;;7.90;;
3259;SDS011;22469;48.150;14.004;2023-03-23T04:17:46;9.00;;;8.00;;
3259;SDS011;22469;48.150;14.004;2023-03-23T04:20:12;10.13;;;9.20;;
3259;SDS011;22469;48.150;14.004;2023-03-23T04:22:48;9.50;;;8.50;;
3259;SDS011;22469;48.150;14.004;2023-03-23T04:25:16;9.07;;;8.30;;
3259;SDS011;22469;48.150;14.004;2023-03-23T04:27:48;9.03;;;8.17;;
3259;SDS011;22469;48.150;14.004;2023-03-23T04:30:22;8.63;;;7.80;;
3259;SDS011;22469;48.150;14.004;2023-03-23T04:32:50;10.90;;;8.10;;
3259;SDS011;22469;48.150;14.004;2023-03-23T04:35:18;8.23;;;7.43;;
3259;SDS011;22469;48.150;14.004;2023-03-23T04:37:46;9.23;;;7.67;;
3259;SDS011;22469;48.150;14.004;2023-03-23T04:40:14;13.93;;;7.70;;
3259;SDS011;22469;48.150;14.004;2023-03-23T04:42:42;9.13;;;8.20;;
3259;SDS011;22469;48.150;14.004;2023-03-23T04:45:13;9.63;;;8.77;;
3259;SDS011;22469;48.150;14.004;2023-03-23T04:47:46;15.23;;;9.97;;
3259;SDS011;22469;48.150;14.004;2023-03-23T04:50:23;9.37;;;8.47;;
3259;SDS011;22469;48.150;14.004;2023-03-23T04:52:56;12.77;;;9.40;;
3259;SDS011;22469;48.150;14.004;2023-03-23T04:55:24;10.67;;;9.77;;
3259;SDS011;22469;48.150;14.004;2023-03-23T04:57:51;12.27;;;11.03;;
3259;SDS011;22469;48.150;14.004;2023-03-23T05:00:17;13.50;;;12.10;;
3259;SDS011;22469;48.150;14.004;2023-03-23T05:02:46;10.80;;;9.20;;
3259;SDS011;22469;48.150;14.004;2023-03-23T05:05:16;12.30;;;11.00;;
3259;SDS011;22469;48.150;14.004;2023-03-23T05:07:44;12.27;;;11.07;;
3259;SDS011;22469;48.150;14.004;2023-03-23T05:10:11;11.63;;;9.83;;
3259;SDS011;22469;48.150;14.004;2023-03-23T05:12:38;13.87;;;10.70;;
3259;SDS011;22469;48.150;14.004;2023-03-23T05:15:05;14.70;;;10.87;;
3259;SDS011;22469;48.150;14.004;2023-03-23T05:17:33;10.80;;;9.80;;
3259;SDS011;22469;48.150;14.004;2023-03-23T05:19:59;12.00;;;9.87;;
3259;SDS011;22469;48.150;14.004;2023-03-23T05:22:29;11.00;;;9.90;;
3259;SDS011;22469;48.150;14.004;2023-03-23T05:24:58;12.30;;;11.10;;
3259;SDS011;22469;48.150;14.004;2023-03-23T05:27:27;12.33;;;11.17;;
3259;SDS011;22469;48.150;14.004;2023-03-23T05:29:56;13.20;;;10.90;;
3259;SDS011;22469;48.150;14.004;2023-03-23T05:32:24;17.23;;;12.90;;
3259;SDS011;22469;48.150;14.004;2023-03-23T05:34:55;12.73;;;11.63;;
3259;SDS011;22469;48.150;14.004;2023-03-23T05:37:26;13.67;;;12.23;;
3259;SDS011;22469;48.150;14.004;2023-03-23T05:39:58;14.17;;;10.80;;
3259;SDS011;22469;48.150;14.004;2023-03-23T05:42:34;11.67;;;10.57;;
3259;SDS011;22469;48.150;14.004;2023-03-23T05:45:02;16.33;;;13.47;;
3259;SDS011;22469;48.150;14.004;2023-03-23T05:47:29;13.97;;;12.47;;
3259;SDS011;22469;48.150;14.004;2023-03-23T05:49:55;20.00;;;13.37;;
3259;SDS011;22469;48.150;14.004;2023-03-23T05:52:22;16.33;;;12.40;;
3259;SDS011;22469;48.150;14.004;2023-03-23T05:54:51;18.53;;;14.63;;
3259;SDS011;22469;48.150;14.004;2023-03-23T05:57:18;16.23;;;14.63;;
3259;SDS011;22469;48.150;14.004;2023-03-23T05:59:47;16.00;;;12.63;;
3259;SDS011;22469;48.150;14.004;2023-03-23T06:02:13;15.23;;;13.73;;
3259;SDS011;22469;48.150;14.004;2023-03-23T06:04:40;15.93;;;12.50;;
3259;SDS011;22469;48.150;14.004;2023-03-23T06:07:07;16.40;;;14.00;;
3259;SDS011;22469;48.150;14.004;2023-03-23T06:09:38;20.97;;;16.33;;
3259;SDS011;22469;48.150;14.004;2023-03-23T06:12:05;23.93;;;15.63;;
3259;SDS011;22469;48.150;14.004;2023-03-23T06:14:33;18.00;;;16.03;;
3259;SDS011;22469;48.150;14.004;2023-03-23T06:16:59;21.00;;;16.10;;
3259;SDS011;22469;48.150;14.004;2023-03-23T06:19:25;25.17;;;15.20;;
3259;SDS011;22469;48.150;14.004;2023-03-23T06:21:52;18.40;;;14.53;;
3259;SDS011;22469;48.150;14.004;2023-03-23T06:24:20;20.90;;;14.17;;
3259;SDS011;22469;48.150;14.004;2023-03-23T06:26:46;20.03;;;14.40;;
3259;SDS011;22469;48.150;14.004;2023-03-23T06:29:13;23.40;;;14.97;;
3259;SDS011;22469;48.150;14.004;2023-03-23T06:31:40;13.00;;;11.70;;
3259;SDS011;22469;48.150;14.004;2023-03-23T06:34:10;13.60;;;11.70;;
3259;SDS011;22469;48.150;14.004;2023-03-23T06:36:37;14.50;;;13.00;;
3259;SDS011;22469;48.150;14.004;2023-03-23T06:39:03;12.70;;;11.50;;
3259;SDS011;22469;48.150;14.004;2023-03-23T06:41:31;11.70;;;10.50;;
3259;SDS011;22469;48.150;14.004;2023-03-23T06:43:58;15.57;;;12.10;;
3259;SDS011;22469;48.150;14.004;2023-03-23T06:46:26;13.63;;;12.10;;
3259;SDS011;22469;48.150;14.004;2023-03-23T06:48:54;13.83;;;12.53;;
3259;SDS011;22469;48.150;14.004;2023-03-23T06:51:20;15.97;;;12.37;;
3259;SDS011;22469;48.150;14.004;2023-03-23T06:53:47;14.60;;;13.20;;
3259;SDS011;22469;48.150;14.004;2023-03-23T06:56:13;16.60;;;14.80;;
3259;SDS011;22469;48.150;14.004;2023-03-23T06:58:39;13.40;;;12.20;;
3259;SDS011;22469;48.150;14.004;2023-03-23T07:01:07;15.20;;;13.33;;
3259;SDS011;22469;48.150;14.004;2023-03-23T07:03:34;13.43;;;12.00;;
3259;SDS011;22469;48.150;14.004;2023-03-23T07:06:02;14.63;;;12.40;;
3259;SDS011;22469;48.150;14.004;2023-03-23T07:08:29;16.07;;;12.87;;
3259;SDS011;22469;48.150;14.004;2023-03-23T07:10:55;14.50;;;13.00;;
3259;SDS011;22469;48.150;14.004;2023-03-23T07:13:22;15.53;;;13.57;;
3259;SDS011;22469;48.150;14.004;2023-03-23T07:15:48;13.57;;;11.90;;
3259;SDS011;22469;48.150;14.004;2023-03-23T07:18:15;13.53;;;11.20;;
3259;SDS011;22469;48.150;14.004;2023-03-23T07:20:42;10.23;;;9.27;;
3259;SDS011;22469;48.150;14.004;2023-03-23T07:23:08;10.60;;;9.60;;
3259;SDS011;22469;48.150;14.004;2023-03-23T07:25:34;10.73;;;9.63;;
3259;SDS011;22469;48.150;14.004;2023-03-23T07:28:02;10.77;;;9.70;;
3259;SDS011;22469;48.150;14.004;2023-03-23T07:30:29;10.40;;;9.40;;
3259;SDS011;22469;48.150;14.004;2023-03-23T07:32:56;12.60;;;11.33;;
3259;SDS011;22469;48.150;14.004;2023-03-23T07:35:23;10.50;;;9.50;;
3259;SDS011;22469;48.150;14.004;2023-03-23T07:37:50;9.57;;;8.80;;
3259;SDS011;22469;48.150;14.004;2023-03-23T07:40:17;12.10;;;9.87;;
3259;SDS011;22469;48.150;14.004;2023-03-23T07:42:44;9.97;;;8.97;;
3259;SDS011;22469;48.150;14.004;2023-03-23T07:45:14;10.57;;;9.57;;
3259;SDS011;22469;48.150;14.004;2023-03-23T07:47:40;11.57;;;8.57;;
3259;SDS011;22469;48.150;14.004;2023-03-23T07:50:07;9.20;;;8.30;;
3259;SDS011;22469;48.150;14.004;2023-03-23T07:52:34;10.97;;;9.33;;
3259;SDS011;22469;48.150;14.004;2023-03-23T07:55:02;9.30;;;8.20;;
3259;SDS011;22469;48.150;14.004;2023-03-23T07:57:31;8.47;;;7.50;;
3259;SDS011;22469;48.150;14.004;2023-03-23T07:59:59;9.00;;;8.20;;
3259;SDS011;22469;48.150;14.004;2023-03-23T08:02:25;10.10;;;6.93;;
3259;SDS011;22469;48.150;14.004;2023-03-23T08:04:51;7.67;;;6.97;;
3259;SDS011;22469;48.150;14.004;2023-03-23T08:07:19;8.63;;;6.93;;
3259;SDS011;22469;48.150;14.004;2023-03-23T08:09:46;9.00;;;8.10;;
3259;SDS011;22469;48.150;14.004;2023-03-23T08:12:13;14.10;;;8.60;;
3259;SDS011;22469;48.150;14.004;2023-03-23T08:14:39;17.87;;;9.50;;
3259;SDS011;22469;48.150;14.004;2023-03-23T08:17:07;18.40;;;10.20;;
3259;SDS011;22469;48.150;14.004;2023-03-23T08:19:36;11.43;;;9.37;;
3259;SDS011;22469;48.150;14.004;2023-03-23T08:22:03;13.03;;;8.57;;
3259;SDS011;22469;48.150;14.004;2023-03-23T08:24:30;15.83;;;8.30;;
3259;SDS011;22469;48.150;14.004;2023-03-23T08:26:58;9.70;;;7.23;;
3259;SDS011;22469;48.150;14.004;2023-03-23T08:29:25;14.50;;;8.77;;
3259;SDS011;22469;48.150;14.004;2023-03-23T08:31:52;10.37;;;8.07;;
3259;SDS011;22469;48.150;14.004;2023-03-23T08:34:19;11.03;;;7.47;;
3259;SDS011;22469;48.150;14.004;2023-03-23T08:36:45;7.93;;;7.20;;
3259;SDS011;22469;48.150;14.004;2023-03-23T08:39:12;6.90;;;6.20;;
3259;SDS011;22469;48.150;14.004;2023-03-23T08:41:41;8.13;;;7.20;;
3259;SDS011;22469;48.150;14.004;2023-03-23T08:44:07;7.30;;;6.70;;
3259;SDS011;22469;48.150;14.004;2023-03-23T08:46:33;6.23;;;5.70;;
3259;SDS011;22469;48.150;14.004;2023-03-23T08:49:00;8.57;;;6.70;;
3259;SDS011;22469;48.150;14.004;2023-03-23T08:51:26;8.03;;;7.10;;
3259;SDS011;22469;48.150;14.004;2023-03-23T08:53:52;7.63;;;6.93;;
3259;SDS011;22469;48.150;14.004;2023-03-23T08:56:19;11.20;;;7.73;;
3259;SDS011;22469;48.150;14.004;2023-03-23T08:58:46;21.97;;;7.03;;
3259;SDS011;22469;48.150;14.004;2023-03-23T09:01:12;6.63;;;6.03;;
3259;SDS011;22469;48.150;14.004;2023-03-23T09:03:38;6.70;;;6.20;;
3259;SDS011;22469;48.150;14.004;2023-03-23T09:06:06;6.90;;;5.70;;
3259;SDS011;22469;48.150;14.004;2023-03-23T09:08:34;6.37;;;5.87;;
3259;SDS011;22469;48.150;14.004;2023-03-23T09:11:01;7.60;;;6.80;;
3259;SDS011;22469;48.150;14.004;2023-03-23T09:13:28;7.33;;;6.50;;
3259;SDS011;22469;48.150;14.004;2023-03-23T09:15:55;10.13;;;6.87;;
3259;SDS011;22469;48.150;14.004;2023-03-23T09:18:20;9.30;;;8.50;;
3259;SDS011;22469;48.150;14.004;2023-03-23T09:20:49;7.10;;;6.60;;
3259;SDS011;22469;48.150;14.004;2023-03-23T09:23:16;6.70;;;5.93;;
3259;SDS011;22469;48.150;14.004;2023-03-23T09:25:42;6.60;;;6.10;;
3259;SDS011;22469;48.150;14.004;2023-03-23T09:28:08;6.70;;;6.10;;
3259;SDS011;22469;48.150;14.004;2023-03-23T09:30:35;6.83;;;6.20;;
3259;SDS011;22469;48.150;14.004;2023-03-23T09:33:04;8.20;;;5.50;;
3259;SDS011;22469;48.150;14.004;2023-03-23T09:35:31;7.07;;;6.47;;
3259;SDS011;22469;48.150;14.004;2023-03-23T09:38:00;5.10;;;4.60;;
3259;SDS011;22469;48.150;14.004;2023-03-23T09:40:37;5.30;;;5.00;;
3259;SDS011;22469;48.150;14.004;2023-03-23T09:43:22;7.30;;;5.80;;
3259;SDS011;22469;48.150;14.004;2023-03-23T09:48:52;6.97;;;6.27;;
3259;SDS011;22469;48.150;14.004;2023-03-23T09:56:45;6.13;;;5.63;;
3259;SDS011;22469;48.150;14.004;2023-03-23T09:59:14;7.63;;;5.60;;
3259;SDS011;22469;48.150;14.004;2023-03-23T10:02:28;6.17;;;5.77;;
3259;SDS011;22469;48.150;14.004;2023-03-23T10:05:19;7.37;;;6.20;;
3259;SDS011;22469;48.150;14.004;2023-03-23T10:07:56;6.33;;;5.73;;
3259;SDS011;22469;48.150;14.004;2023-03-23T10:10:29;6.40;;;5.90;;
3259;SDS011;22469;48.150;14.004;2023-03-23T10:13:50;7.10;;;6.30;;
3259;SDS011;22469;48.150;14.004;2023-03-23T10:16:08;6.83;;;6.33;;
3259;SDS011;22469;48.150;14.004;2023-03-23T10:21:19;8.03;;;7.30;;
3259;SDS011;22469;48.150;14.004;2023-03-23T10:23:52;7.53;;;6.90;;
3259;SDS011;22469;48.150;14.004;2023-03-23T10:26:28;8.10;;;7.50;;
3259;SDS011;22469;48.150;14.004;2023-03-23T10:29:12;7.20;;;6.27;;
3259;SDS011;22469;48.150;14.004;2023-03-23T10:32:00;8.67;;;8.07;;
3259;SDS011;22469;48.150;14.004;2023-03-23T10:34:52;7.47;;;6.77;;
3259;SDS011;22469;48.150;14.004;2023-03-23T10:37:27;9.60;;;8.80;;
3259;SDS011;22469;48.150;14.004;2023-03-23T10:40:02;9.13;;;8.23;;
3259;SDS011;22469;48.150;14.004;2023-03-23T10:42:36;8.20;;;7.50;;
3259;SDS011;22469;48.150;14.004;2023-03-23T10:45:17;9.20;;;8.40;;
3259;SDS011;22469;48.150;14.004;2023-03-23T10:50:40;8.60;;;7.53;;
3259;SDS011;22469;48.150;14.004;2023-03-23T10:53:16;8.00;;;7.30;;
3259;SDS011;22469;48.150;14.004;2023-03-23T10:55:50;8.40;;;7.63;;
3259;SDS011;22469;48.150;14.004;2023-03-23T10:58:23;8.17;;;7.50;;
3259;SDS011;22469;48.150;14.004;2023-03-23T11:01:02;9.20;;;7.33;;
3259;SDS011;22469;48.150;14.004;2023-03-23T11:06:04;9.07;;;8.27;;
3259;SDS011;22469;48.150;14.004;2023-03-23T11:08:35;9.73;;;7.97;;
3259;SDS011;22469;48.150;14.004;2023-03-23T11:11:16;10.30;;;9.20;;
3259;SDS011;22469;48.150;14.004;2023-03-23T11:13:46;9.37;;;8.53;;
3259;SDS011;22469;48.150;14.004;2023-03-23T11:16:29;8.37;;;7.67;;
3259;SDS011;22469;48.150;14.004;2023-03-23T11:19:00;8.97;;;8.07;;
3259;SDS011;22469;48.150;14.004;2023-03-23T11:21:39;9.33;;;8.30;;
3259;SDS011;22469;48.150;14.004;2023-03-23T11:24:07;8.57;;;7.87;;
3259;SDS011;22469;48.150;14.004;2023-03-23T11:26:34;7.97;;;7.20;;
3259;SDS011;22469;48.150;14.004;2023-03-23T11:31:40;12.10;;;8.27;;
3259;SDS011;22469;48.150;14.004;2023-03-23T11:36:49;9.43;;;8.50;;
3259;SDS011;22469;48.150;14.004;2023-03-23T11:41:55;8.17;;;7.37;;
3259;SDS011;22469;48.150;14.004;2023-03-23T11:44:32;8.90;;;8.00;;
3259;SDS011;22469;48.150;14.004;2023-03-23T11:47:11;10.83;;;8.03;;
3259;SDS011;22469;48.150;14.004;2023-03-23T11:53:02;7.47;;;6.87;;
3259;SDS011;22469;48.150;14.004;2023-03-23T11:58:12;8.33;;;7.37;;
3259;SDS011;22469;48.150;14.004;2023-03-23T12:01:24;8.47;;;7.77;;
3259;SDS011;22469;48.150;14.004;2023-03-23T12:15:42;13.37;;;8.30;;
3259;SDS011;22469;48.150;14.004;2023-03-23T12:35:13;6.83;;;6.23;;
3259;SDS011;22469;48.150;14.004;2023-03-23T12:48:52;6.00;;;5.30;;
3259;SDS011;22469;48.150;14.004;2023-03-23T12:54:29;5.87;;;5.23;;
3259;SDS011;22469;48.150;14.004;2023-03-23T13:02:40;6.47;;;5.87;;
3259;SDS011;22469;48.150;14.004;2023-03-23T13:05:32;4.87;;;4.57;;
3259;SDS011;22469;48.150;14.004;2023-03-23T13:08:28;4.73;;;4.33;;
3259;SDS011;22469;48.150;14.004;2023-03-23T13:11:10;3.87;;;3.57;;
3259;SDS011;22469;48.150;14.004;2023-03-23T13:16:26;4.07;;;3.77;;
3259;SDS011;22469;48.150;14.004;2023-03-23T13:24:58;5.10;;;4.60;;
3259;SDS011;22469;48.150;14.004;2023-03-23T13:27:29;5.10;;;4.60;;
3259;SDS011;22469;48.150;14.004;2023-03-23T13:29:56;4.77;;;4.30;;
3259;SDS011;22469;48.150;14.004;2023-03-23T13:35:11;4.57;;;4.17;;
3259;SDS011;22469;48.150;14.004;2023-03-23T13:37:48;4.70;;;4.20;;
3259;SDS011;22469;48.150;14.004;2023-03-23T13:40:29;4.43;;;4.03;;
3259;SDS011;22469;48.150;14.004;2023-03-23T13:42:59;4.10;;;3.80;;
3259;SDS011;22469;48.150;14.004;2023-03-23T13:48:05;2.30;;;2.20;;
3259;SDS011;22469;48.150;14.004;2023-03-23T13:53:26;2.50;;;2.40;;
3259;SDS011;22469;48.150;14.004;2023-03-23T13:56:16;2.50;;;1.80;;
3259;SDS011;22469;48.150;14.004;2023-03-23T13:58:45;1.90;;;1.70;;
3259;SDS011;22469;48.150;14.004;2023-03-23T14:01:30;1.80;;;1.70;;
3259;SDS011;22469;48.150;14.004;2023-03-23T14:04:00;2.60;;;2.20;;
3259;SDS011;22469;48.150;14.004;2023-03-23T14:06:34;3.33;;;2.57;;
3259;SDS011;22469;48.150;14.004;2023-03-23T14:09:19;2.63;;;2.30;;
3259;SDS011;22469;48.150;14.004;2023-03-23T14:14:31;2.40;;;2.20;;
3259;SDS011;22469;48.150;14.004;2023-03-23T14:17:10;4.10;;;2.43;;
3259;SDS011;22469;48.150;14.004;2023-03-23T14:19:46;2.47;;;2.30;;
3259;SDS011;22469;48.150;14.004;2023-03-23T14:22:18;1.90;;;1.80;;
3259;SDS011;22469;48.150;14.004;2023-03-23T14:24:49;2.13;;;2.00;;
3259;SDS011;22469;48.150;14.004;2023-03-23T14:29:45;2.77;;;2.57;;
3259;SDS011;22469;48.150;14.004;2023-03-23T14:32:14;3.87;;;2.70;;
3259;SDS011;22469;48.150;14.004;2023-03-23T14:34:44;2.83;;;2.63;;
3259;SDS011;22469;48.150;14.004;2023-03-23T14:37:13;2.77;;;2.57;;
3259;SDS011;22469;48.150;14.004;2023-03-23T14:39:44;5.23;;;3.50;;
3259;SDS011;22469;48.150;14.004;2023-03-23T14:42:13;4.23;;;2.13;;
3259;SDS011;22469;48.150;14.004;2023-03-23T14:44:43;3.40;;;2.13;;
3259;SDS011;22469;48.150;14.004;2023-03-23T14:47:15;2.20;;;2.00;;
3259;SDS011;22469;48.150;14.004;2023-03-23T14:49:56;2.80;;;2.17;;
3259;SDS011;22469;48.150;14.004;2023-03-23T14:52:27;2.37;;;2.17;;
3259;SDS011;22469;48.150;14.004;2023-03-23T14:54:55;8.73;;;2.50;;
3259;SDS011;22469;48.150;14.004;2023-03-23T14:57:42;2.10;;;2.00;;
3259;SDS011;22469;48.150;14.004;2023-03-23T15:00:15;2.13;;;1.97;;
3259;SDS011;22469;48.150;14.004;2023-03-23T15:02:55;2.73;;;2.33;;
3259;SDS011;22469;48.150;14.004;2023-03-23T15:06:06;2.83;;;2.70;;
3259;SDS011;22469;48.150;14.004;2023-03-23T15:08:19;2.10;;;2.00;;
3259;SDS011;22469;48.150;14.004;2023-03-23T15:11:01;4.53;;;2.33;;
3259;SDS011;22469;48.150;14.004;2023-03-23T15:13:42;4.80;;;2.83;;
3259;SDS011;22469;48.150;14.004;2023-03-23T15:16:17;2.50;;;2.30;;
3259;SDS011;22469;48.150;14.004;2023-03-23T15:18:51;2.13;;;2.03;;
3259;SDS011;22469;48.150;14.004;2023-03-23T15:23:55;2.20;;;2.10;;
3259;SDS011;22469;48.150;14.004;2023-03-23T15:26:27;3.70;;;3.50;;
3259;SDS011;22469;48.150;14.004;2023-03-23T15:31:38;3.63;;;3.33;;
3259;SDS011;22469;48.150;14.004;2023-03-23T15:34:31;3.20;;;2.90;;
3259;SDS011;22469;48.150;14.004;2023-03-23T15:37:13;2.50;;;2.40;;
3259;SDS011;22469;48.150;14.004;2023-03-23T15:39:59;3.30;;;3.00;;
3259;SDS011;22469;48.150;14.004;2023-03-23T15:42:29;3.20;;;3.00;;
3259;SDS011;22469;48.150;14.004;2023-03-23T15:45:50;2.93;;;2.73;;
3259;SDS011;22469;48.150;14.004;2023-03-23T15:47:52;2.50;;;2.30;;
3259;SDS011;22469;48.150;14.004;2023-03-23T15:52:51;2.27;;;2.17;;
3259;SDS011;22469;48.150;14.004;2023-03-23T15:57:46;2.40;;;2.30;;
3259;SDS011;22469;48.150;14.004;2023-03-23T16:00:18;2.60;;;2.50;;
3259;SDS011;22469;48.150;14.004;2023-03-23T16:02:58;2.80;;;2.60;;
3259;SDS011;22469;48.150;14.004;2023-03-23T16:05:28;3.33;;;3.03;;
3259;SDS011;22469;48.150;14.004;2023-03-23T16:07:56;3.50;;;2.77;;
3259;SDS011;22469;48.150;14.004;2023-03-23T16:10:24;3.10;;;2.90;;
3259;SDS011;22469;48.150;14.004;2023-03-23T16:12:53;3.50;;;3.20;;
3259;SDS011;22469;48.150;14.004;2023-03-23T16:15:20;3.90;;;3.50;;
3259;SDS011;22469;48.150;14.004;2023-03-23T16:17:47;4.20;;;3.90;;
3259;SDS011;22469;48.150;14.004;2023-03-23T16:20:15;6.73;;;4.20;;
3259;SDS011;22469;48.150;14.004;2023-03-23T16:22:48;4.77;;;3.93;;
3259;SDS011;22469;48.150;14.004;2023-03-23T16:25:17;4.10;;;3.30;;
3259;SDS011;22469;48.150;14.004;2023-03-23T16:27:45;6.20;;;3.90;;
3259;SDS011;22469;48.150;14.004;2023-03-23T16:30:24;6.40;;;4.23;;
3259;SDS011;22469;48.150;14.004;2023-03-23T16:32:54;3.60;;;3.30;;
3259;SDS011;22469;48.150;14.004;2023-03-23T16:35:23;5.30;;;4.13;;
3259;SDS011;22469;48.150;14.004;2023-03-23T16:37:52;5.50;;;5.10;;
3259;SDS011;22469;48.150;14.004;2023-03-23T16:40:32;3.10;;;2.90;;
3259;SDS011;22469;48.150;14.004;2023-03-23T16:43:00;3.93;;;3.53;;
3259;SDS011;22469;48.150;14.004;2023-03-23T16:45:34;4.27;;;3.97;;
3259;SDS011;22469;48.150;14.004;2023-03-23T16:48:04;3.43;;;3.20;;
3259;SDS011;22469;48.150;14.004;2023-03-23T16:50:33;3.60;;;3.27;;
3259;SDS011;22469;48.150;14.004;2023-03-23T16:53:02;3.80;;;3.60;;
3259;SDS011;22469;48.150;14.004;2023-03-23T16:55:30;4.53;;;4.13;;
3259;SDS011;22469;48.150;14.004;2023-03-23T16:57:58;4.73;;;4.33;;
3259;SDS011;22469;48.150;14.004;2023-03-23T17:00:42;4.50;;;3.97;;
3259;SDS011;22469;48.150;14.004;2023-03-23T17:03:13;4.23;;;3.93;;
3259;SDS011;22469;48.150;14.004;2023-03-23T17:05:42;5.67;;;5.13;;
3259;SDS011;22469;48.150;14.004;2023-03-23T17:08:11;4.40;;;4.00;;
3259;SDS011;22469;48.150;14.004;2023-03-23T17:10:38;5.27;;;4.77;;
3259;SDS011;22469;48.150;14.004;2023-03-23T17:13:09;4.20;;;3.90;;
3259;SDS011;22469;48.150;14.004;2023-03-23T17:15:37;4.83;;;4.33;;
3259;SDS011;22469;48.150;14.004;2023-03-23T17:18:12;4.30;;;3.90;;
3259;SDS011;22469;48.150;14.004;2023-03-23T17:20:39;4.00;;;3.70;;
3259;SDS011;22469;48.150;14.004;2023-03-23T17:23:07;4.70;;;3.53;;
3259;SDS011;22469;48.150;14.004;2023-03-23T17:25:34;4.93;;;4.53;;
3259;SDS011;22469;48.150;14.004;2023-03-23T17:28:01;4.60;;;4.30;;